createdAt,value
2023-03-08T00:01:50.080Z,7.07
2023-03-08T00:04:59.180Z,6.20
2023-03-08T00:08:01.838Z,5.90
2023-03-08T00:11:07.836Z,6.23
2023-03-08T00:14:11.056Z,6.37
2023-03-08T00:17:13.848Z,6.00
2023-03-08T00:20:16.751Z,6.53
2023-03-08T00:23:22.541Z,6.60
2023-03-08T00:26:26.576Z,7.43
2023-03-08T00:29:29.275Z,6.43
2023-03-08T00:32:32.029Z,6.63
2023-03-08T00:35:36.946Z,6.10
2023-03-08T00:38:39.653Z,6.17
2023-03-08T00:42:03.326Z,6.80
2023-03-08T00:45:07.052Z,6.50
2023-03-08T00:48:09.816Z,5.23
2023-03-08T00:51:14.685Z,5.50
2023-03-08T00:54:17.441Z,5.70
2023-03-08T00:57:21.481Z,6.33
2023-03-08T01:00:25.145Z,5.17
2023-03-08T01:03:27.860Z,6.00
2023-03-08T01:06:30.846Z,6.17
2023-03-08T01:09:33.511Z,5.93
2023-03-08T01:12:37.660Z,5.73
2023-03-08T01:15:40.319Z,5.87
2023-03-08T01:18:42.952Z,6.20
2023-03-08T01:21:45.652Z,6.10
2023-03-08T01:24:53.596Z,6.23
2023-03-08T01:27:57.599Z,5.73
2023-03-08T01:31:08.820Z,5.60
2023-03-08T01:34:11.503Z,5.40
2023-03-08T01:37:14.152Z,6.10
2023-03-08T01:40:17.382Z,5.77
2023-03-08T01:43:27.180Z,5.53
2023-03-08T01:46:34.174Z,5.23
2023-03-08T01:49:37.553Z,5.67
2023-03-08T01:52:46.750Z,6.27
2023-03-08T01:55:49.630Z,5.63
2023-03-08T01:58:56.586Z,5.93
2023-03-08T02:02:01.534Z,6.07
2023-03-08T02:05:04.746Z,6.27
2023-03-08T02:08:11.933Z,5.83
2023-03-08T02:11:17.874Z,6.43
2023-03-08T02:14:21.989Z,6.53
2023-03-08T02:17:25.588Z,6.30
2023-03-08T02:20:32.527Z,6.63
2023-03-08T02:23:42.650Z,5.80
2023-03-08T02:26:50.687Z,6.00
2023-03-08T02:29:53.671Z,6.10
2023-03-08T02:32:56.644Z,6.00
2023-03-08T02:35:59.489Z,6.40
2023-03-08T02:39:03.556Z,6.27
2023-03-08T02:42:07.497Z,5.87
2023-03-08T02:45:11.350Z,5.63
2023-03-08T02:48:15.296Z,6.53
2023-03-08T02:51:17.961Z,6.10
2023-03-08T02:54:24.500Z,6.37
2023-03-08T02:57:27.194Z,5.83
2023-03-08T03:00:32.005Z,6.07
2023-03-08T03:03:34.611Z,6.40
2023-03-08T03:06:39.798Z,6.33
2023-03-08T03:09:46.919Z,6.23
2023-03-08T03:12:49.584Z,6.00
2023-03-08T03:15:55.419Z,6.27
2023-03-08T03:18:58.221Z,6.03
2023-03-08T03:22:00.898Z,6.37
2023-03-08T03:25:06.409Z,6.13
2023-03-08T03:28:09.017Z,5.80
2023-03-08T03:31:15.394Z,5.80
2023-03-08T03:34:18.178Z,6.07
2023-03-08T03:37:20.836Z,5.70
2023-03-08T03:40:24.844Z,5.80
2023-03-08T03:43:30.333Z,5.90
2023-03-08T03:46:36.094Z,5.60
2023-03-08T03:49:38.713Z,6.27
2023-03-08T03:52:41.777Z,5.57
2023-03-08T03:55:45.878Z,6.20
2023-03-08T03:58:48.745Z,6.23
2023-03-08T04:01:53.226Z,6.10
2023-03-08T04:04:59.190Z,6.60
2023-03-08T04:08:01.861Z,6.53
2023-03-08T04:11:09.630Z,6.47
2023-03-08T04:14:12.429Z,5.93
2023-03-08T04:17:17.502Z,6.07
2023-03-08T04:20:20.715Z,6.67
2023-03-08T04:23:23.456Z,6.27
2023-03-08T04:26:27.835Z,6.67
2023-03-08T04:29:30.641Z,6.20
2023-03-08T04:32:33.641Z,6.37
2023-03-08T04:35:38.674Z,6.00
2023-03-08T04:38:45.563Z,6.40
2023-03-08T04:41:49.571Z,6.93
2023-03-08T04:44:52.238Z,6.87
2023-03-08T04:47:55.051Z,6.23
2023-03-08T04:50:59.210Z,6.10
2023-03-08T04:54:01.884Z,6.40
2023-03-08T04:57:06.085Z,6.50
2023-03-08T05:00:10.165Z,5.97
2023-03-08T05:03:13.824Z,6.10
2023-03-08T05:06:17.848Z,5.97
2023-03-08T05:09:20.834Z,7.00
2023-03-08T05:12:24.863Z,6.50
2023-03-08T05:15:27.676Z,6.03
2023-03-08T05:18:30.293Z,5.87
2023-03-08T05:21:35.137Z,6.60
2023-03-08T05:24:41.011Z,6.00
2023-03-08T05:27:44.939Z,6.43
2023-03-08T05:30:47.773Z,5.77
2023-03-08T05:33:52.435Z,6.07
2023-03-08T05:37:01.661Z,6.70
2023-03-08T05:40:06.720Z,6.20
2023-03-08T05:43:10.715Z,5.93
2023-03-08T05:46:15.890Z,6.60
2023-03-08T05:49:18.639Z,6.50
2023-03-08T05:52:21.255Z,6.90
2023-03-08T05:55:30.849Z,7.00
2023-03-08T05:58:34.878Z,7.40
2023-03-08T06:01:37.557Z,7.33
2023-03-08T06:04:40.799Z,6.80
2023-03-08T06:07:43.783Z,6.10
2023-03-08T06:10:46.446Z,7.43
2023-03-08T06:13:50.465Z,6.57
2023-03-08T06:16:53.128Z,7.27
2023-03-08T06:19:55.793Z,7.43
2023-03-08T06:22:58.648Z,7.10
2023-03-08T06:26:01.951Z,8.53
2023-03-08T06:29:05.988Z,8.47
2023-03-08T06:32:09.009Z,8.23
2023-03-08T06:35:11.751Z,8.07
2023-03-08T06:38:14.615Z,8.43
2023-03-08T06:41:19.875Z,8.10
2023-03-08T06:44:23.867Z,7.77
2023-03-08T06:47:28.524Z,8.17
2023-03-08T06:50:31.471Z,8.13
2023-03-08T06:53:36.072Z,8.30
2023-03-08T06:56:38.727Z,8.37
2023-03-08T06:59:42.774Z,8.50
2023-03-08T07:02:45.532Z,7.73
2023-03-08T07:05:48.265Z,8.83
2023-03-08T07:08:50.986Z,9.30
2023-03-08T07:11:53.660Z,8.83
2023-03-08T07:14:57.734Z,9.23
2023-03-08T07:18:00.371Z,9.37
2023-03-08T07:21:04.206Z,9.57
2023-03-08T07:24:07.285Z,9.23
2023-03-08T07:27:10.031Z,9.20
2023-03-08T07:30:16.555Z,9.77
2023-03-08T07:33:20.844Z,10.47
2023-03-08T07:36:23.632Z,9.53
2023-03-08T07:39:26.517Z,10.43
2023-03-08T07:42:29.168Z,11.83
2023-03-08T07:45:33.232Z,10.67
2023-03-08T07:48:35.969Z,10.13
2023-03-08T07:51:39.013Z,10.07
2023-03-08T07:54:42.033Z,10.50
2023-03-08T07:57:44.685Z,10.20
2023-03-08T08:00:48.757Z,9.67
2023-03-08T08:03:51.835Z,11.27
2023-03-08T08:06:54.492Z,10.60
2023-03-08T08:09:57.687Z,11.60
2023-03-08T08:13:00.385Z,9.93
2023-03-08T08:16:07.128Z,10.77
2023-03-08T08:19:12.384Z,10.13
2023-03-08T08:22:15.465Z,9.93
2023-03-08T08:25:18.546Z,12.10
2023-03-08T08:28:21.344Z,9.77
2023-03-08T08:31:30.995Z,9.70
2023-03-08T08:34:33.752Z,10.40
2023-03-08T08:37:36.547Z,9.77
2023-03-08T08:40:39.405Z,9.87
2023-03-08T08:43:43.198Z,10.50
2023-03-08T08:46:47.203Z,10.03
2023-03-08T08:49:50.085Z,9.17
2023-03-08T08:52:52.787Z,8.43
2023-03-08T08:55:55.546Z,9.60
2023-03-08T08:58:58.985Z,41.57
2023-03-08T09:02:03.161Z,7.40
2023-03-08T09:05:06.496Z,8.23
2023-03-08T09:08:09.590Z,8.30
2023-03-08T09:11:12.767Z,8.60
2023-03-08T09:14:16.125Z,8.97
2023-03-08T09:17:20.223Z,8.37
2023-03-08T09:20:23.768Z,8.40
2023-03-08T09:23:26.459Z,9.43
2023-03-08T09:26:30.519Z,7.80
2023-03-08T09:29:33.790Z,7.90
2023-03-08T09:32:37.897Z,8.03
2023-03-08T09:35:40.585Z,6.80
2023-03-08T09:38:43.741Z,7.27
2023-03-08T09:41:50.880Z,8.40
2023-03-08T09:45:08.306Z,7.03
2023-03-08T09:48:16.048Z,7.70
2023-03-08T09:51:20.134Z,7.67
2023-03-08T09:54:25.645Z,7.70
2023-03-08T09:57:34.221Z,7.17
2023-03-08T10:00:38.649Z,7.50
2023-03-08T10:04:02.215Z,7.80
2023-03-08T10:07:17.393Z,7.10
2023-03-08T10:10:30.176Z,6.13
2023-03-08T10:13:34.505Z,7.43
2023-03-08T10:16:41.375Z,7.57
2023-03-08T10:19:51.864Z,6.27
2023-03-08T10:22:58.542Z,6.13
2023-03-08T10:26:03.154Z,6.10
2023-03-08T10:29:05.837Z,7.73
2023-03-08T10:32:14.745Z,7.23
2023-03-08T10:35:19.834Z,6.30
2023-03-08T10:38:23.399Z,7.17
2023-03-08T10:41:26.857Z,6.67
2023-03-08T10:44:36.993Z,5.93
2023-03-08T10:47:39.897Z,6.53
2023-03-08T10:50:43.945Z,6.03
2023-03-08T10:53:54.579Z,4.80
2023-03-08T10:56:59.565Z,5.53
2023-03-08T11:00:12.246Z,6.17
2023-03-08T11:03:17.586Z,5.40
2023-03-08T11:06:28.762Z,5.57
2023-03-08T11:09:38.127Z,4.93
2023-03-08T11:12:41.404Z,5.23
2023-03-08T11:16:05.487Z,4.67
2023-03-08T11:19:17.431Z,4.93
2023-03-08T11:22:39.080Z,4.40
2023-03-08T11:25:48.560Z,4.53
2023-03-08T11:29:07.097Z,6.33
2023-03-08T11:32:29.491Z,5.87
2023-03-08T11:35:52.089Z,5.20
2023-03-08T11:39:03.981Z,5.77
2023-03-08T11:42:23.247Z,6.00
2023-03-08T11:45:41.983Z,5.37
2023-03-08T11:49:14.550Z,3.63
2023-03-08T11:52:31.292Z,5.13
2023-03-08T11:56:06.477Z,5.37
2023-03-08T11:59:17.742Z,6.27
2023-03-08T12:02:23.228Z,4.50
2023-03-08T12:05:31.497Z,4.30
2023-03-08T12:08:39.427Z,4.83
2023-03-08T12:11:47.283Z,3.27
2023-03-08T12:14:56.428Z,5.63
2023-03-08T12:18:19.599Z,7.70
2023-03-08T12:21:37.119Z,5.03
2023-03-08T12:24:49.622Z,4.17
2023-03-08T12:28:02.153Z,3.50
2023-03-08T12:31:27.894Z,5.07
2023-03-08T12:34:40.981Z,5.67
2023-03-08T12:37:43.725Z,4.67
2023-03-08T12:40:48.615Z,7.03
2023-03-08T12:44:02.882Z,8.40
2023-03-08T12:47:20.489Z,5.57
2023-03-08T12:50:25.962Z,6.03
2023-03-08T12:53:57.999Z,4.03
2023-03-08T12:57:04.046Z,4.60
2023-03-08T13:00:31.029Z,8.20
2023-03-08T13:03:41.144Z,8.77
2023-03-08T13:07:21.229Z,4.97
2023-03-08T13:10:29.953Z,5.50
2023-03-08T13:13:52.279Z,6.27
2023-03-08T13:16:59.063Z,7.23
2023-03-08T13:20:12.453Z,6.27
2023-03-08T13:23:37.617Z,6.20
2023-03-08T13:27:21.681Z,6.30
2023-03-08T13:30:26.744Z,6.13
2023-03-08T13:33:34.481Z,7.67
2023-03-08T13:36:38.937Z,7.27
2023-03-08T13:39:41.748Z,8.87
2023-03-08T13:42:54.347Z,9.27
2023-03-08T13:46:02.077Z,6.60
2023-03-08T13:49:14.841Z,9.83
2023-03-08T13:52:20.273Z,6.50
2023-03-08T13:55:30.961Z,8.33
2023-03-08T13:58:36.398Z,8.87
2023-03-08T14:01:48.356Z,8.40
2023-03-08T14:04:55.618Z,5.73
2023-03-08T14:08:04.101Z,7.00
2023-03-08T14:11:18.795Z,5.40
2023-03-08T14:14:27.648Z,5.37
2023-03-08T14:17:33.552Z,8.10
2023-03-08T14:20:38.049Z,7.43
2023-03-08T14:23:44.116Z,5.00
2023-03-08T14:27:00.294Z,4.67
2023-03-08T14:30:11.426Z,3.77
2023-03-08T14:33:28.320Z,4.40
2023-03-08T14:36:49.447Z,3.83
2023-03-08T14:39:58.333Z,3.37
2023-03-08T14:43:04.652Z,3.33
2023-03-08T14:46:16.851Z,3.10
2023-03-08T14:49:22.508Z,2.40
2023-03-08T14:52:28.803Z,2.00
2023-03-08T14:55:33.152Z,2.20
2023-03-08T14:58:39.208Z,2.03
2023-03-08T15:01:49.185Z,3.03
2023-03-08T15:04:51.886Z,7.63
2023-03-08T15:07:56.977Z,14.70
2023-03-08T15:10:59.684Z,2.70
2023-03-08T15:14:02.793Z,1.57
2023-03-08T15:17:05.535Z,1.47
2023-03-08T15:20:10.548Z,1.77
2023-03-08T15:23:18.453Z,2.40
2023-03-08T15:26:25.248Z,1.60
2023-03-08T15:29:30.120Z,1.80
2023-03-08T15:32:33.728Z,1.53
2023-03-08T15:35:36.602Z,4.83
2023-03-08T15:38:40.690Z,3.40
2023-03-08T15:41:43.557Z,7.33
2023-03-08T15:44:46.438Z,4.17
2023-03-08T15:47:57.367Z,3.50
2023-03-08T15:51:00.472Z,1.93
2023-03-08T15:54:06.534Z,2.20
2023-03-08T15:57:10.686Z,1.63
2023-03-08T16:00:17.330Z,2.20
2023-03-08T16:03:25.830Z,1.43
2023-03-08T16:06:34.217Z,2.10
2023-03-08T16:09:38.224Z,1.80
2023-03-08T16:12:41.639Z,2.40
2023-03-08T16:15:47.045Z,2.10
2023-03-08T16:19:03.688Z,3.30
2023-03-08T16:22:06.691Z,1.90
2023-03-08T16:25:11.571Z,2.30
2023-03-08T16:28:14.194Z,2.03
2023-03-08T16:31:21.414Z,1.70
2023-03-08T16:34:24.104Z,1.67
2023-03-08T16:37:27.747Z,1.80
2023-03-08T16:40:46.655Z,1.60
2023-03-08T16:43:49.601Z,2.13
2023-03-08T16:46:52.900Z,2.73
2023-03-08T16:49:55.532Z,4.10
2023-03-08T16:52:59.528Z,1.90
2023-03-08T16:56:04.586Z,3.77
2023-03-08T16:59:08.074Z,1.43
2023-03-08T17:02:14.828Z,1.83
2023-03-08T17:05:17.610Z,1.93
2023-03-08T17:08:20.278Z,1.53
2023-03-08T17:11:28.395Z,1.10
2023-03-08T17:14:34.797Z,1.20
2023-03-08T17:17:39.426Z,1.00
2023-03-08T17:20:45.173Z,1.00
2023-03-08T17:23:50.982Z,1.20
2023-03-08T17:26:55.443Z,0.97
2023-03-08T17:30:00.945Z,0.80
2023-03-08T17:33:12.855Z,0.70
2023-03-08T17:36:16.973Z,0.70
2023-03-08T17:39:23.115Z,0.80
2023-03-08T17:42:28.066Z,0.70
2023-03-08T17:45:33.964Z,0.90
2023-03-08T17:48:36.679Z,1.00
2023-03-08T17:51:43.020Z,0.70
2023-03-08T17:54:45.908Z,1.30
2023-03-08T17:57:50.276Z,1.20
2023-03-08T18:00:53.014Z,1.47
2023-03-08T18:03:59.322Z,1.20
2023-03-08T18:07:02.101Z,1.10
2023-03-08T18:10:06.406Z,1.13
2023-03-08T18:13:10.737Z,1.00
2023-03-08T18:16:13.716Z,1.50
2023-03-08T18:19:16.793Z,1.10
2023-03-08T18:22:19.708Z,1.17
2023-03-08T18:25:23.149Z,1.20
2023-03-08T18:28:27.870Z,1.20
2023-03-08T18:31:32.371Z,1.03
2023-03-08T18:34:36.459Z,1.33
2023-03-08T18:37:39.306Z,1.53
2023-03-08T18:40:43.485Z,3.10
2023-03-08T18:43:47.708Z,2.13
2023-03-08T18:46:51.308Z,2.10
2023-03-08T18:49:54.231Z,2.33
2023-03-08T18:52:59.902Z,2.50
2023-03-08T18:56:05.485Z,2.53
2023-03-08T18:59:09.858Z,2.10
2023-03-08T19:02:13.600Z,2.03
2023-03-08T19:05:17.621Z,2.30
2023-03-08T19:08:23.045Z,5.83
2023-03-08T19:11:27.560Z,4.77
2023-03-08T19:14:33.005Z,2.63
2023-03-08T19:17:36.274Z,2.10
2023-03-08T19:20:41.064Z,2.40
2023-03-08T19:23:44.249Z,3.07
2023-03-08T19:26:50.380Z,3.97
2023-03-08T19:29:55.339Z,4.20
2023-03-08T19:32:58.558Z,5.50
2023-03-08T19:36:02.523Z,5.07
2023-03-08T19:39:07.817Z,6.87
2023-03-08T19:42:14.442Z,5.43
2023-03-08T19:45:19.226Z,3.90
2023-03-08T19:48:21.952Z,4.03
2023-03-08T19:51:24.612Z,3.90
2023-03-08T19:54:28.977Z,3.40
2023-03-08T19:57:33.946Z,3.60
2023-03-08T20:00:37.909Z,4.03
2023-03-08T20:03:40.706Z,2.70
2023-03-08T20:06:50.863Z,2.60
2023-03-08T20:09:54.557Z,6.80
2023-03-08T20:12:57.574Z,3.57
2023-03-08T20:16:02.174Z,3.40
2023-03-08T20:19:04.882Z,2.20
2023-03-08T20:22:07.624Z,1.57
2023-03-08T20:25:12.448Z,2.40
2023-03-08T20:28:15.083Z,2.87
2023-03-08T20:31:23.635Z,3.53
2023-03-08T20:34:28.225Z,3.20
2023-03-08T20:37:31.812Z,2.63
2023-03-08T20:40:34.549Z,2.90
2023-03-08T20:43:39.220Z,3.17
2023-03-08T20:46:50.394Z,2.80
2023-03-08T20:49:53.421Z,7.03
2023-03-08T20:52:56.135Z,5.50
2023-03-08T20:55:59.172Z,4.70
2023-03-08T20:59:02.446Z,7.43
2023-03-08T21:02:06.505Z,3.43
2023-03-08T21:05:10.054Z,1.20
2023-03-08T21:08:12.816Z,1.10
2023-03-08T21:11:15.686Z,1.37
2023-03-08T21:14:18.356Z,1.20
2023-03-08T21:17:25.958Z,1.07
2023-03-08T21:20:28.893Z,0.80
2023-03-08T21:23:39.685Z,1.40
2023-03-08T21:26:42.884Z,1.20
2023-03-08T21:29:45.777Z,1.73
2023-03-08T21:32:50.387Z,1.60
2023-03-08T21:35:53.120Z,1.60
2023-03-08T21:38:58.139Z,1.90
2023-03-08T21:42:00.891Z,1.70
2023-03-08T21:45:03.762Z,1.70
2023-03-08T21:48:11.341Z,1.83
2023-03-08T21:51:16.911Z,1.20
2023-03-08T21:54:20.091Z,1.60
2023-03-08T21:57:22.812Z,1.90
2023-03-08T22:00:25.911Z,2.30
2023-03-08T22:03:31.290Z,1.87
2023-03-08T22:06:34.923Z,2.10
2023-03-08T22:09:39.981Z,2.03
2023-03-08T22:12:43.417Z,2.30
2023-03-08T22:15:51.363Z,2.40
2023-03-08T22:18:57.485Z,2.20
2023-03-08T22:22:05.429Z,1.73
2023-03-08T22:25:09.031Z,1.80
2023-03-08T22:28:12.027Z,2.10
2023-03-08T22:31:19.561Z,1.77
2023-03-08T22:34:26.685Z,1.97
2023-03-08T22:37:29.343Z,1.70
2023-03-08T22:40:32.314Z,2.10
2023-03-08T22:43:38.984Z,2.00
2023-03-08T22:46:41.678Z,2.67
2023-03-08T22:49:52.100Z,3.13
2023-03-08T22:52:54.833Z,3.53
2023-03-08T22:55:58.516Z,3.70
2023-03-08T22:59:02.052Z,3.27
2023-03-08T23:02:06.179Z,2.73
2023-03-08T23:05:13.113Z,2.37
2023-03-08T23:08:23.231Z,2.57
2023-03-08T23:11:27.256Z,2.13
2023-03-08T23:14:30.067Z,2.47
2023-03-08T23:17:36.540Z,2.93
2023-03-08T23:20:42.673Z,3.30
2023-03-08T23:23:45.611Z,4.23
2023-03-08T23:26:48.966Z,3.97
2023-03-08T23:29:54.773Z,4.50
2023-03-08T23:32:59.157Z,3.27
2023-03-08T23:36:07.393Z,3.60
2023-03-08T23:39:11.486Z,2.70
2023-03-08T23:42:30.777Z,2.73
2023-03-08T23:45:33.610Z,2.80
2023-03-08T23:48:43.125Z,3.10
2023-03-08T23:51:49.741Z,2.77
2023-03-08T23:54:52.696Z,2.77
2023-03-08T23:57:56.484Z,2.67
